Time;durP1;ratioP1;P1;durP2;ratioP2;P2;SDS_P1;SDS_P2;PMS_P1;PMS_P2;Temp;Humidity;BMP_temperature;BMP_pressure;BME280_temperature;BME280_humidity;BME280_pressure;Samples;Min_cycle;Max_cycle;Signal;HPM_P1;HPM_P2
2023/05/08 00:00:40;;;;;;;4.90;4.50;;;;;;;16.61;59.02;99205.03;4941224;28;40315;-80
2023/05/08 00:03:08;;;;;;;5.37;4.87;;;;;;;16.58;59.24;99199.06;4957266;28;41759;-78
2023/05/08 00:05:37;;;;;;;5.20;4.80;;;;;;;16.54;59.14;99198.50;4941240;28;42937;-78
2023/05/08 00:08:05;;;;;;;6.03;5.43;;;;;;;16.61;59.92;99212.19;4941226;28;41126;-80
2023/05/08 00:10:33;;;;;;;5.20;4.80;;;;;;;16.58;59.81;99207.94;4974730;28;40107;-81
2023/05/08 00:13:00;;;;;;;5.43;5.00;;;;;;;16.58;59.81;99205.28;4974256;28;41638;-80
2023/05/08 00:15:28;;;;;;;6.27;5.77;;;;;;;16.37;60.06;99182.97;4974326;28;43273;-79
2023/05/08 00:17:56;;;;;;;6.20;5.60;;;;;;;16.53;60.02;99213.69;4974420;28;43153;-80
2023/05/08 00:20:23;;;;;;;5.83;5.33;;;;;;;16.47;60.13;99199.97;4957662;28;39990;-79
2023/05/08 00:22:52;;;;;;;6.07;5.57;;;;;;;16.50;60.68;99202.38;4941230;28;41642;-81
2023/05/08 00:25:20;;;;;;;5.73;5.23;;;;;;;16.39;60.80;99192.56;4974690;28;42790;-81
2023/05/08 00:27:47;;;;;;;5.90;5.40;;;;;;;16.34;61.06;99185.88;4957021;28;42465;-79
2023/05/08 00:30:16;;;;;;;6.33;5.77;;;;;;;16.37;61.29;99212.38;4941140;28;40922;-80
2023/05/08 00:32:44;;;;;;;6.00;5.50;;;;;;;16.37;61.03;99201.69;4956963;28;41671;-80
2023/05/08 00:35:12;;;;;;;7.00;6.30;;;;;;;16.33;61.30;99208.25;4941011;28;41382;-81
2023/05/08 00:37:40;;;;;;;6.30;5.73;;;;;;;16.22;60.92;99200.22;4940685;28;41212;-79
2023/05/08 00:40:11;;;;;;;6.43;5.57;;;;;;;16.22;61.17;99198.41;4957172;28;40301;-79
2023/05/08 00:42:39;;;;;;;5.70;5.20;;;;;;;16.32;61.05;99217.25;4941011;28;40838;-78
2023/05/08 00:45:08;;;;;;;5.93;5.47;;;;;;;16.15;61.08;99195.41;4974233;28;42665;-81
2023/05/08 00:47:35;;;;;;;5.20;4.80;;;;;;;16.28;60.72;99213.13;4940518;28;41115;-78
2023/05/08 00:50:04;;;;;;;6.23;5.63;;;;;;;16.32;61.03;99215.41;4956966;28;39847;-78
2023/05/08 00:52:33;;;;;;;5.57;5.10;;;;;;;16.33;61.00;99222.44;4939295;28;40706;-79
2023/05/08 00:55:02;;;;;;;5.87;5.40;;;;;;;16.04;60.91;99166.03;4940729;28;41772;-81
2023/05/08 00:57:34;;;;;;;6.70;6.10;;;;;;;16.31;60.96;99226.25;4956441;28;43198;-79
2023/05/08 01:00:04;;;;;;;5.97;5.47;;;;;;;16.30;61.30;99232.56;4940377;28;38881;-81
2023/05/08 01:02:32;;;;;;;7.00;6.37;;;;;;;16.27;61.54;99224.78;4940441;28;42024;-79
2023/05/08 01:05:00;;;;;;;6.20;5.70;;;;;;;16.26;61.52;99225.75;4956656;28;43628;-80
2023/05/08 01:07:28;;;;;;;6.00;5.40;;;;;;;16.13;61.25;99210.69;4940207;28;40708;-80
2023/05/08 01:09:55;;;;;;;6.57;5.83;;;;;;;16.12;61.53;99209.00;4940467;28;39354;-79
2023/05/08 01:12:29;;;;;;;6.20;5.60;;;;;;;16.11;61.67;99217.97;4940371;28;40546;-79
2023/05/08 01:20:00;;;;;;;6.43;5.93;;;;;;;16.05;62.19;99231.00;4973452;28;43714;-81
2023/05/08 01:22:50;;;;;;;6.27;5.70;;;;;;;16.02;62.33;99232.06;4953303;28;41833;-79
2023/05/08 01:25:42;;;;;;;6.93;6.33;;;;;;;15.97;62.08;99231.56;4956629;28;42757;-81
2023/05/08 01:28:43;;;;;;;6.90;6.20;;;;;;;15.96;62.59;99235.22;4939997;28;41723;-78
2023/05/08 01:31:24;;;;;;;6.17;5.67;;;;;;;15.93;62.41;99239.97;4939973;28;42171;-81
2023/05/08 01:34:03;;;;;;;6.67;6.07;;;;;;;15.92;62.26;99239.13;4955791;28;40254;-80
2023/05/08 01:36:37;;;;;;;6.33;5.70;;;;;;;15.88;62.32;99232.31;4953104;28;41895;-81
2023/05/08 01:39:14;;;;;;;6.80;6.10;;;;;;;15.83;62.61;99231.78;4939742;28;44974;-80
2023/05/08 01:41:59;;;;;;;6.57;6.07;;;;;;;15.90;62.25;99241.06;4953103;28;42387;-79
2023/05/08 01:44:33;;;;;;;7.03;6.40;;;;;;;15.85;62.27;99237.88;4972698;28;39903;-80
2023/05/08 01:47:06;;;;;;;7.00;6.40;;;;;;;15.79;62.64;99235.69;4939627;28;42398;-79
2023/05/08 01:49:40;;;;;;;6.70;6.13;;;;;;;15.82;62.32;99237.28;4972929;28;43894;-80
2023/05/08 01:52:18;;;;;;;6.60;6.00;;;;;;;15.79;62.53;99241.03;4939596;28;41600;-80
2023/05/08 01:54:55;;;;;;;6.53;6.03;;;;;;;15.77;62.96;99240.31;4973152;28;41207;-80
2023/05/08 01:57:26;;;;;;;6.60;6.00;;;;;;;15.76;63.05;99246.63;4952676;28;42588;-79
2023/05/08 01:59:56;;;;;;;6.53;5.93;;;;;;;15.65;62.92;99230.56;4939514;28;42588;-79
2023/05/08 02:02:25;;;;;;;6.27;5.77;;;;;;;15.78;63.04;99255.38;4955145;28;41916;-80
2023/05/08 02:04:54;;;;;;;6.67;6.07;;;;;;;15.76;63.11;99249.28;4939480;28;38634;-79
2023/05/08 02:07:23;;;;;;;6.33;5.73;;;;;;;15.74;62.65;99256.56;4939348;28;43351;-79
2023/05/08 02:09:51;;;;;;;6.90;6.30;;;;;;;15.72;63.15;99269.16;4955462;28;42607;-78
2023/05/08 02:12:21;;;;;;;6.97;6.37;;;;;;;15.69;63.48;99259.59;4955381;28;43321;-79
2023/05/08 02:14:50;;;;;;;7.03;6.43;;;;;;;15.40;63.21;99215.56;4939278;28;42380;-80
2023/05/08 02:17:18;;;;;;;6.73;6.13;;;;;;;15.64;63.23;99266.25;4939153;28;42508;-78
2023/05/08 02:19:47;;;;;;;6.83;6.33;;;;;;;15.60;63.45;99254.94;4939346;28;44491;-78
2023/05/08 02:22:18;;;;;;;6.87;6.23;;;;;;;15.59;63.52;99261.25;4939087;28;41390;-80
2023/05/08 02:24:46;;;;;;;6.60;6.00;;;;;;;15.58;63.16;99264.88;4955143;28;38864;-78
2023/05/08 02:27:15;;;;;;;6.67;6.17;;;;;;;15.59;63.75;99268.41;4939381;28;40790;-79
2023/05/08 02:29:42;;;;;;;7.40;6.40;;;;;;;15.57;63.80;99265.03;4938761;28;41457;-80
2023/05/08 02:32:10;;;;;;;7.10;6.40;;;;;;;15.55;63.37;99261.63;4955113;28;41157;-80
2023/05/08 02:34:39;;;;;;;6.17;5.67;;;;;;;15.61;63.40;99266.47;4938828;28;38868;-80
2023/05/08 02:37:07;;;;;;;6.93;6.23;;;;;;;15.59;63.58;99257.72;4938707;28;41084;-79
2023/05/08 02:39:39;;;;;;;7.27;6.53;;;;;;;15.49;63.75;99256.69;4954820;28;42670;-80
2023/05/08 02:42:07;;;;;;;6.37;5.87;;;;;;;15.57;63.53;99281.06;4938942;28;42533;-80
2023/05/08 02:44:35;;;;;;;6.10;5.53;;;;;;;15.56;63.30;99274.84;4954939;28;39975;-80
2023/05/08 02:47:14;;;;;;;6.37;5.83;;;;;;;15.58;63.24;99269.41;4939041;28;41832;-79
2023/05/08 02:49:48;;;;;;;6.40;5.90;;;;;;;15.58;63.12;99282.75;4938774;28;42639;-78
2023/05/08 02:52:23;;;;;;;6.60;6.03;;;;;;;15.54;63.30;99275.91;4951941;28;42431;-79
2023/05/08 02:54:58;;;;;;;7.00;6.30;;;;;;;15.55;63.11;99272.31;4952189;28;40180;-78
2023/05/08 02:57:36;;;;;;;6.53;5.93;;;;;;;15.55;63.30;99277.63;4951839;28;41867;-79
2023/05/08 03:00:12;;;;;;;6.53;6.03;;;;;;;15.54;63.41;99281.25;4938477;28;41731;-78
2023/05/08 03:02:42;;;;;;;6.77;6.07;;;;;;;15.51;63.31;99284.13;4938486;28;41202;-79
2023/05/08 03:05:17;;;;;;;6.23;5.37;;;;;;;15.53;63.41;99284.88;4938629;28;42074;-79
2023/05/08 03:07:47;;;;;;;6.40;5.80;;;;;;;15.43;63.55;99269.56;4969242;28;41888;-78
2023/05/08 03:10:18;;;;;;;6.50;5.80;;;;;;;15.36;63.70;99262.97;4938655;28;41068;-79
2023/05/08 03:12:50;;;;;;;5.73;5.23;;;;;;;15.48;63.76;99281.69;4938565;28;41290;-78
2023/05/08 03:15:24;;;;;;;6.67;6.07;;;;;;;15.33;63.67;99263.19;4938884;28;38521;-79
2023/05/08 03:17:54;;;;;;;6.20;5.70;;;;;;;15.45;63.23;99285.47;4955499;28;41576;-79
2023/05/08 03:20:24;;;;;;;6.20;5.70;;;;;;;15.45;63.65;99283.63;4941853;28;45024;-80
2023/05/08 03:22:55;;;;;;;6.27;5.77;;;;;;;15.42;63.77;99283.88;4941571;28;41320;-79
2023/05/08 03:25:29;;;;;;;6.67;5.97;;;;;;;15.28;63.94;99253.84;4942468;28;38913;-79
2023/05/08 03:27:58;;;;;;;6.00;5.50;;;;;;;15.42;63.97;99289.22;4955282;28;41601;-79
2023/05/08 03:30:27;;;;;;;6.83;6.23;;;;;;;15.41;63.62;99284.84;4957804;28;42991;-80
2023/05/08 03:33:03;;;;;;;6.50;5.90;;;;;;;15.33;64.55;99283.72;4957929;28;41202;-79
2023/05/08 03:35:32;;;;;;;6.83;6.23;;;;;;;15.24;64.82;99274.56;4941661;28;41376;-79
2023/05/08 03:37:59;;;;;;;6.40;5.90;;;;;;;15.16;65.13;99282.31;4957800;28;42636;-79
2023/05/08 03:40:29;;;;;;;7.17;6.57;;;;;;;14.94;66.10;99272.38;4957731;28;42808;-79
2023/05/08 03:42:58;;;;;;;6.50;5.97;;;;;;;14.90;66.95;99275.38;4957365;28;42977;-78
2023/05/08 03:45:26;;;;;;;6.87;6.27;;;;;;;14.77;66.53;99264.75;4957661;28;39825;-79
2023/05/08 03:47:55;;;;;;;6.33;5.70;;;;;;;14.86;66.93;99273.88;4974852;28;41806;-79
2023/05/08 03:50:24;;;;;;;6.10;5.60;;;;;;;14.86;67.36;99268.56;4941528;28;43455;-78
2023/05/08 03:52:52;;;;;;;6.67;5.90;;;;;;;14.82;68.68;99267.09;4941060;28;42201;-80
2023/05/08 03:55:20;;;;;;;8.20;7.50;;;;;;;14.74;69.40;99270.31;4941437;28;39983;-80
2023/05/08 03:57:56;;;;;;;6.77;6.17;;;;;;;14.73;69.15;99273.94;4957373;28;41888;-79
2023/05/08 04:00:32;;;;;;;6.63;6.13;;;;;;;14.59;69.49;99261.59;4941108;28;41640;-79
2023/05/08 04:03:11;;;;;;;6.80;6.17;;;;;;;14.54;69.17;99257.59;4955031;28;42272;-79
2023/05/08 04:05:47;;;;;;;6.83;6.13;;;;;;;14.61;69.27;99275.69;4941433;28;38968;-79
2023/05/08 04:08:19;;;;;;;7.43;6.73;;;;;;;14.58;69.54;99275.91;4972444;28;42656;-78
2023/05/08 04:10:51;;;;;;;6.67;6.03;;;;;;;14.59;69.83;99280.25;4971679;28;42811;-79
2023/05/08 04:13:25;;;;;;;7.60;6.97;;;;;;;14.59;70.26;99282.06;4941243;28;40608;-78
2023/05/08 04:16:01;;;;;;;6.50;6.00;;;;;;;14.49;70.07;99273.91;4954463;28;39960;-79
2023/05/08 04:18:31;;;;;;;6.60;6.00;;;;;;;14.56;69.94;99288.50;4940474;28;40596;-79
2023/05/08 04:21:03;;;;;;;6.83;6.13;;;;;;;14.57;70.06;99290.22;4941400;28;41822;-78
2023/05/08 04:23:33;;;;;;;6.93;6.03;;;;;;;14.59;69.72;99298.91;4956721;28;43231;-79
2023/05/08 04:26:03;;;;;;;6.10;5.60;;;;;;;14.64;69.74;99296.78;4957131;28;39996;-78
2023/05/08 04:28:33;;;;;;;6.20;5.70;;;;;;;14.61;69.79;99291.66;4939170;28;41139;-78
2023/05/08 04:31:04;;;;;;;5.83;5.33;;;;;;;14.57;69.78;99284.03;4956770;28;41707;-78
2023/05/08 04:33:33;;;;;;;6.17;5.57;;;;;;;14.68;69.84;99298.28;4973829;28;42361;-78
2023/05/08 04:36:02;;;;;;;6.37;5.77;;;;;;;14.69;69.86;99305.31;4956899;28;40938;-78
2023/05/08 04:38:30;;;;;;;5.07;4.67;;;;;;;14.79;69.50;99302.84;4956500;28;41809;-79
2023/05/08 04:40:58;;;;;;;6.20;5.60;;;;;;;14.85;69.76;99304.19;4940569;28;41432;-78
2023/05/08 04:43:26;;;;;;;6.13;5.53;;;;;;;14.86;70.10;99311.22;4939799;28;43292;-78
2023/05/08 04:45:55;;;;;;;6.43;5.83;;;;;;;14.90;69.79;99316.22;4973954;28;39437;-79
2023/05/08 04:48:24;;;;;;;5.97;5.50;;;;;;;14.97;69.60;99314.81;4956510;28;42397;-78
2023/05/08 04:50:52;;;;;;;6.70;6.13;;;;;;;15.01;69.34;99321.63;4940386;28;42086;-79
2023/05/08 04:53:20;;;;;;;5.80;5.27;;;;;;;15.08;69.00;99327.38;4956265;28;42147;-78
2023/05/08 04:55:48;;;;;;;7.03;6.43;;;;;;;15.12;68.96;99328.00;4940491;28;38836;-79
2023/05/08 04:58:16;;;;;;;6.40;5.90;;;;;;;15.17;68.92;99337.38;4940184;28;41928;-79
2023/05/08 05:00:43;;;;;;;6.43;5.83;;;;;;;15.22;68.52;99340.53;4956302;28;42826;-78
2023/05/08 05:03:13;;;;;;;5.97;5.47;;;;;;;15.20;68.39;99331.81;4956284;28;43246;-77
2023/05/08 05:05:41;;;;;;;6.70;6.07;;;;;;;15.20;68.25;99342.50;4956329;28;40042;-79
2023/05/08 05:08:09;;;;;;;6.17;5.67;;;;;;;15.25;68.13;99337.66;4939603;28;42189;-78
2023/05/08 05:10:38;;;;;;;6.43;5.83;;;;;;;15.27;67.97;99342.88;4956208;28;42319;-78
2023/05/08 05:13:06;;;;;;;6.23;5.73;;;;;;;15.24;67.71;99348.44;4939877;28;41472;-79
2023/05/08 05:15:34;;;;;;;6.53;5.57;;;;;;;15.31;67.17;99350.56;4940035;28;40034;-78
2023/05/08 05:18:01;;;;;;;6.00;5.40;;;;;;;15.26;66.59;99342.03;4939700;28;41690;-79
2023/05/08 05:20:32;;;;;;;6.17;5.67;;;;;;;15.41;65.95;99356.91;4940147;28;41680;-78
2023/05/08 05:23:00;;;;;;;6.30;5.70;;;;;;;15.46;65.91;99354.72;4939616;28;41200;-79
2023/05/08 05:25:28;;;;;;;5.97;5.37;;;;;;;15.49;65.60;99359.00;4940011;28;39859;-78
2023/05/08 05:27:55;;;;;;;6.00;5.50;;;;;;;15.56;65.38;99356.75;4955602;28;41961;-78
2023/05/08 05:30:23;;;;;;;5.17;4.77;;;;;;;15.56;65.45;99354.09;4955816;28;43827;-78
2023/05/08 05:32:51;;;;;;;4.93;4.53;;;;;;;15.68;65.48;99369.19;4939290;28;42010;-78
2023/05/08 05:35:19;;;;;;;5.47;4.97;;;;;;;15.69;64.73;99365.56;4939773;28;40931;-78
2023/05/08 05:37:48;;;;;;;5.90;5.30;;;;;;;15.77;64.86;99371.16;4939402;28;40125;-78
2023/05/08 05:40:16;;;;;;;5.97;5.47;;;;;;;15.76;64.25;99356.09;4955219;28;42770;-76
2023/05/08 05:42:49;;;;;;;5.80;5.30;;;;;;;15.95;64.50;99372.41;4939468;28;42170;-78
2023/05/08 05:45:18;;;;;;;5.90;5.33;;;;;;;16.11;64.28;99380.13;4939247;28;41331;-77
2023/05/08 05:47:48;;;;;;;5.80;5.30;;;;;;;16.28;63.83;99376.16;4939418;28;41714;-76
2023/05/08 05:50:18;;;;;;;5.33;4.93;;;;;;;16.43;63.42;99380.31;4952804;28;42888;-79
2023/05/08 05:52:48;;;;;;;6.13;5.63;;;;;;;16.55;62.54;99387.38;4939131;28;41619;-78
2023/05/08 05:55:17;;;;;;;5.40;4.97;;;;;;;16.67;61.93;99394.47;4955456;28;40892;-77
2023/05/08 05:57:47;;;;;;;5.63;5.13;;;;;;;16.79;61.42;99400.66;4954782;28;42259;-77
2023/05/08 06:00:16;;;;;;;6.53;5.93;;;;;;;16.88;60.90;99399.94;4955217;28;41463;-78
2023/05/08 06:02:49;;;;;;;5.97;5.40;;;;;;;16.96;60.41;99415.34;4939468;28;42359;-78
2023/05/08 06:05:19;;;;;;;6.23;5.60;;;;;;;16.99;60.32;99407.09;4939419;28;39775;-78
2023/05/08 06:07:48;;;;;;;6.00;5.50;;;;;;;17.05;60.17;99402.13;4947584;28;42693;-78
2023/05/08 06:10:15;;;;;;;5.53;5.03;;;;;;;17.04;60.07;99394.22;4938735;28;42961;-79
2023/05/08 06:12:43;;;;;;;5.10;4.70;;;;;;;17.10;59.07;99415.09;4954143;28;42745;-77
2023/05/08 06:15:13;;;;;;;5.73;5.20;;;;;;;17.11;57.89;99416.81;4938745;28;39267;-76
2023/05/08 06:17:42;;;;;;;5.43;5.03;;;;;;;17.06;57.88;99411.81;4928859;28;40716;-77
2023/05/08 06:20:10;;;;;;;5.10;4.60;;;;;;;17.12;57.86;99413.16;4938822;28;42496;-79
2023/05/08 06:22:40;;;;;;;5.43;4.93;;;;;;;17.17;57.94;99410.97;4934700;28;41288;-78
2023/05/08 06:25:10;;;;;;;5.33;4.90;;;;;;;17.31;57.50;99418.72;4935769;28;41153;-78
2023/05/08 06:27:38;;;;;;;5.60;5.10;;;;;;;17.24;57.20;99402.31;4941062;28;40618;-78
2023/05/08 06:30:09;;;;;;;5.17;4.73;;;;;;;17.44;56.49;99429.28;4954827;28;42665;-78
2023/05/08 06:32:37;;;;;;;4.90;4.50;;;;;;;17.53;56.39;99432.09;4962562;28;42519;-78
2023/05/08 06:35:06;;;;;;;5.10;4.70;;;;;;;17.57;55.95;99429.97;4919871;28;38970;-79
2023/05/08 06:37:34;;;;;;;5.90;5.00;;;;;;;17.64;56.08;99425.88;4940504;28;41389;-79
2023/05/08 06:40:02;;;;;;;5.13;4.67;;;;;;;17.68;54.80;99443.38;4955007;28;42130;-79
2023/05/08 06:42:32;;;;;;;5.67;5.03;;;;;;;17.74;54.93;99437.53;4953840;28;40816;-80
2023/05/08 06:44:59;;;;;;;4.97;4.57;;;;;;;17.77;54.32;99448.00;4938487;28;40044;-79
2023/05/08 06:47:27;;;;;;;5.13;4.70;;;;;;;17.81;53.78;99444.06;4953649;28;40785;-78
2023/05/08 06:49:55;;;;;;;5.37;4.97;;;;;;;17.82;53.63;99440.41;4938454;28;42718;-79
2023/05/08 06:52:24;;;;;;;5.40;5.00;;;;;;;17.83;53.01;99441.25;4933332;28;41494;-79
2023/05/08 06:54:52;;;;;;;5.10;4.60;;;;;;;17.84;52.89;99440.28;4919847;28;38746;-84
2023/05/08 06:57:19;;;;;;;5.20;4.80;;;;;;;17.85;53.86;99428.59;4938897;28;41636;-82
2023/05/08 06:59:48;;;;;;;7.00;5.53;;;;;;;18.06;53.57;99445.53;4953884;28;42647;-77
2023/05/08 07:02:16;;;;;;;6.07;5.10;;;;;;;18.15;52.52;99447.47;4934803;28;41284;-80
2023/05/08 07:04:44;;;;;;;5.47;5.07;;;;;;;18.26;52.01;99444.72;4935121;28;38743;-87
2023/05/08 07:07:12;;;;;;;7.03;5.10;;;;;;;18.42;52.88;99441.56;4938015;28;41902;-83
2023/05/08 07:09:40;;;;;;;5.40;5.00;;;;;;;18.53;51.95;99454.09;4938220;28;41757;-84
2023/05/08 07:12:08;;;;;;;5.87;5.27;;;;;;;18.66;51.96;99452.09;4971087;28;42437;-80
2023/05/08 07:14:36;;;;;;;5.47;4.97;;;;;;;18.79;51.84;99450.00;4954480;28;40920;-85
2023/05/08 07:17:06;;;;;;;5.23;4.70;;;;;;;18.90;51.00;99460.69;4952679;28;41833;-80
2023/05/08 07:19:36;;;;;;;5.00;4.47;;;;;;;19.05;50.75;99454.94;4952323;28;42481;-77
2023/05/08 07:22:04;;;;;;;5.00;4.60;;;;;;;19.26;51.23;99455.75;4934186;28;43639;-80
2023/05/08 07:24:33;;;;;;;5.60;5.07;;;;;;;19.38;49.79;99466.25;4934806;28;39323;-78
2023/05/08 07:27:01;;;;;;;5.00;4.60;;;;;;;19.50;49.67;99466.19;4920101;28;40509;-78
2023/05/08 07:29:28;;;;;;;4.73;4.43;;;;;;;19.70;48.79;99475.97;4937547;28;41883;-87
2023/05/08 07:31:56;;;;;;;5.27;4.87;;;;;;;19.88;49.24;99471.63;4953066;28;41827;-77
2023/05/08 07:34:25;;;;;;;5.07;4.50;;;;;;;20.08;49.11;99467.09;4934209;28;40047;-76
2023/05/08 07:36:52;;;;;;;4.97;4.57;;;;;;;20.29;47.89;99483.94;4935464;28;42679;-76
2023/05/08 07:39:21;;;;;;;5.10;4.70;;;;;;;20.42;47.37;99484.53;4954156;28;42747;-77
2023/05/08 07:41:48;;;;;;;5.03;4.63;;;;;;;20.52;47.93;99472.94;4954524;28;41649;-83
2023/05/08 07:44:16;;;;;;;5.20;4.70;;;;;;;20.29;47.92;99457.03;4934922;28;40070;-80
2023/05/08 07:46:44;;;;;;;5.40;4.90;;;;;;;20.54;48.00;99479.00;4935166;28;41692;-80
2023/05/08 07:49:11;;;;;;;5.47;5.00;;;;;;;20.75;48.41;99466.22;4936957;28;41721;-77
2023/05/08 07:51:41;;;;;;;5.73;5.23;;;;;;;20.85;47.02;99485.88;4971607;28;42315;-80
2023/05/08 07:54:08;;;;;;;5.00;4.60;;;;;;;20.97;47.02;99479.34;4950443;28;40534;-80
2023/05/08 07:56:36;;;;;;;5.60;5.10;;;;;;;21.09;46.49;99482.69;4935290;28;41775;-79
2023/05/08 07:59:04;;;;;;;5.20;4.80;;;;;;;21.17;46.45;99483.66;4951666;28;41377;-80
2023/05/08 08:01:31;;;;;;;5.53;5.10;;;;;;;21.31;46.15;99481.50;4968441;28;42403;-79
2023/05/08 08:03:59;;;;;;;5.50;5.00;;;;;;;21.41;45.65;99493.06;4957037;28;39465;-82
2023/05/08 08:06:27;;;;;;;6.37;5.13;;;;;;;21.49;45.79;99468.94;4973526;28;42729;-83
2023/05/08 08:08:56;;;;;;;5.07;4.67;;;;;;;21.87;46.30;99475.94;4937377;28;41440;-80
2023/05/08 08:11:24;;;;;;;6.13;5.57;;;;;;;22.17;45.91;99474.75;4922132;28;41127;-81
2023/05/08 08:13:52;;;;;;;6.50;5.30;;;;;;;22.41;43.31;99499.25;4937045;28;39133;-78
2023/05/08 08:16:20;;;;;;;6.13;4.80;;;;;;;22.58;43.88;99494.84;4957418;28;42498;-80
2023/05/08 08:18:47;;;;;;;5.63;5.03;;;;;;;22.73;43.13;99493.28;4937363;28;41844;-78
2023/05/08 08:21:15;;;;;;;5.87;5.27;;;;;;;22.66;42.23;99464.34;4937708;28;40912;-78
2023/05/08 08:23:43;;;;;;;5.87;5.40;;;;;;;22.96;42.37;99493.63;4967767;28;41005;-78
2023/05/08 08:26:12;;;;;;;5.77;5.27;;;;;;;22.98;42.75;99507.84;4956451;28;40615;-77
2023/05/08 08:28:40;;;;;;;5.13;4.73;;;;;;;23.03;42.74;99505.47;4936576;28;42865;-78
2023/05/08 08:31:08;;;;;;;6.00;5.50;;;;;;;23.20;42.65;99507.28;4938149;28;41203;-82
2023/05/08 08:33:36;;;;;;;5.90;5.30;;;;;;;23.30;42.99;99496.34;4921785;28;40203;-84
2023/05/08 08:36:04;;;;;;;5.50;4.77;;;;;;;23.37;42.99;99486.56;4954968;28;41881;-81
2023/05/08 08:38:32;;;;;;;5.70;5.07;;;;;;;23.59;42.57;99504.13;4947627;28;41989;-82
2023/05/08 08:40:59;;;;;;;6.07;5.47;;;;;;;23.64;42.02;99504.47;4937891;28;42698;-80
2023/05/08 08:43:29;;;;;;;5.70;5.20;;;;;;;23.64;41.97;99504.47;4930423;28;39186;-77
2023/05/08 08:45:58;;;;;;;7.40;5.53;;;;;;;23.72;41.59;99501.81;4936939;28;40648;-80
2023/05/08 08:48:29;;;;;;;5.30;4.80;;;;;;;23.89;42.23;99503.53;4956084;28;43533;-80
2023/05/08 08:51:02;;;;;;;5.73;5.33;;;;;;;23.95;40.69;99511.00;4955398;28;42814;-81
2023/05/08 08:53:35;;;;;;;5.50;5.10;;;;;;;23.99;41.53;99492.56;4936884;28;39991;-79
2023/05/08 08:56:08;;;;;;;6.47;5.87;;;;;;;24.05;40.71;99518.13;4937421;28;41604;-79
2023/05/08 08:58:45;;;;;;;5.97;5.47;;;;;;;23.95;40.39;99524.53;4935113;28;42965;-78
2023/05/08 09:01:16;;;;;;;6.17;5.40;;;;;;;24.00;40.95;99516.75;4967774;28;41060;-77
2023/05/08 09:03:44;;;;;;;6.67;6.00;;;;;;;24.09;40.92;99519.50;4974516;28;40228;-80
2023/05/08 09:06:14;;;;;;;6.23;5.63;;;;;;;24.23;41.36;99503.47;4973498;28;42511;-81
2023/05/08 09:08:42;;;;;;;6.47;5.87;;;;;;;24.34;40.75;99515.84;4955840;28;41907;-80
2023/05/08 09:11:09;;;;;;;6.87;6.27;;;;;;;24.44;40.16;99529.22;4956287;28;42406;-79
2023/05/08 09:13:38;;;;;;;6.13;5.53;;;;;;;24.41;41.18;99508.75;4971395;28;39824;-81
2023/05/08 09:16:07;;;;;;;6.13;5.60;;;;;;;24.42;39.24;99529.38;4973124;28;41542;-78
2023/05/08 09:18:34;;;;;;;6.23;5.73;;;;;;;24.34;39.31;99519.41;4955508;28;42013;-80
2023/05/08 09:21:02;;;;;;;5.97;5.40;;;;;;;24.29;39.48;99516.34;4956271;28;45275;-77
2023/05/08 09:23:30;;;;;;;5.70;5.20;;;;;;;24.45;40.50;99515.53;4927488;28;38592;-81
2023/05/08 09:25:58;;;;;;;5.50;5.07;;;;;;;24.62;41.03;99513.66;4936470;28;40880;-79
2023/05/08 09:28:27;;;;;;;5.40;5.00;;;;;;;24.54;39.68;99479.28;4940186;28;20231;-78
2023/05/08 09:30:59;;;;;;;5.67;5.27;;;;;;;25.00;39.34;99514.84;4971835;28;43300;-83
2023/05/08 09:33:28;;;;;;;6.23;5.73;;;;;;;25.22;39.12;99519.53;4927170;28;39380;-81
2023/05/08 09:35:56;;;;;;;6.50;6.00;;;;;;;25.31;38.34;99520.38;4935893;28;41810;-82
2023/05/08 09:38:34;;;;;;;6.03;5.60;;;;;;;25.34;39.63;99496.47;4965362;28;42809;-80
2023/05/08 09:41:14;;;;;;;5.90;5.30;;;;;;;25.60;38.67;99528.72;4955189;28;42487;-79
2023/05/08 09:43:42;;;;;;;6.17;5.57;;;;;;;25.61;37.92;99502.47;4955004;28;40031;-82
2023/05/08 09:46:23;;;;;;;6.97;5.90;;;;;;;25.71;38.12;99509.41;4939336;28;40785;-77
2023/05/08 09:48:51;;;;;;;6.27;5.67;;;;;;;25.97;37.85;99522.66;4952088;28;42946;-78
2023/05/08 09:51:19;;;;;;;7.23;6.53;;;;;;;26.25;37.71;99528.44;4939156;28;41437;-80
2023/05/08 09:53:47;;;;;;;6.17;5.57;;;;;;;26.46;37.31;99525.06;4972237;28;41007;-77
2023/05/08 09:56:14;;;;;;;6.47;5.97;;;;;;;26.78;36.63;99524.84;4951761;28;41797;-78
2023/05/08 09:58:44;;;;;;;6.23;5.60;;;;;;;27.02;36.79;99522.94;4971551;28;42809;-79
2023/05/08 10:01:30;;;;;;;6.90;6.20;;;;;;;27.15;36.12;99532.16;4953841;28;41195;-79
2023/05/08 10:03:58;;;;;;;7.63;7.03;;;;;;;27.24;36.41;99523.91;4969730;28;39608;-79
2023/05/08 10:06:27;;;;;;;7.30;6.60;;;;;;;27.38;36.63;99523.91;4950697;28;41609;-79
2023/05/08 10:09:09;;;;;;;5.87;5.37;;;;;;;27.59;37.31;99520.47;4954876;28;42889;-78
2023/05/08 10:11:37;;;;;;;7.20;6.60;;;;;;;27.66;35.41;99535.03;4971599;28;42374;-79
2023/05/08 10:14:05;;;;;;;6.53;5.93;;;;;;;27.48;36.42;99516.31;4939533;28;39321;-77
2023/05/08 10:16:39;;;;;;;6.67;6.13;;;;;;;27.43;36.41;99528.81;4939599;28;41499;-81
2023/05/08 10:19:12;;;;;;;6.53;6.03;;;;;;;27.20;36.78;99501.66;4933381;28;42826;-84
2023/05/08 10:21:43;;;;;;;7.47;6.77;;;;;;;27.12;36.37;99516.22;4935177;28;41127;-81
2023/05/08 10:24:16;;;;;;;7.10;6.50;;;;;;;27.04;37.29;99512.72;4939132;28;38460;-82
2023/05/08 10:26:52;;;;;;;6.80;6.27;;;;;;;26.94;37.21;99506.72;4953794;28;41796;-83
2023/05/08 10:29:28;;;;;;;5.97;5.57;;;;;;;26.98;38.11;99505.31;4954946;28;41991;-81
2023/05/08 10:31:59;;;;;;;6.83;6.23;;;;;;;27.08;37.58;99504.00;4936760;28;41784;-86
2023/05/08 10:34:31;;;;;;;6.47;5.97;;;;;;;27.20;37.16;99501.66;4935630;28;40018;-83
2023/05/08 10:36:59;;;;;;;8.03;7.33;;;;;;;26.95;36.44;99475.78;4937591;28;41696;-80
2023/05/08 10:39:29;;;;;;;6.13;5.70;;;;;;;27.20;37.72;99501.66;4937790;28;42274;-79
2023/05/08 10:41:58;;;;;;;7.80;7.10;;;;;;;27.23;37.65;99498.56;4954016;28;41365;-78
2023/05/08 10:44:28;;;;;;;8.63;7.83;;;;;;;27.30;38.07;99502.25;4970120;28;40972;-80
2023/05/08 10:47:08;;;;;;;6.77;6.17;;;;;;;27.31;37.79;99498.50;4950684;28;40747;-78
2023/05/08 10:49:42;;;;;;;8.10;7.50;;;;;;;27.26;37.06;99506.38;4949579;28;42512;-81
2023/05/08 10:52:17;;;;;;;8.70;7.57;;;;;;;27.11;37.45;99509.06;4932300;28;42324;-79
2023/05/08 10:55:16;;;;;;;6.40;5.90;;;;;;;26.94;37.67;99495.84;4949850;28;40781;-82
2023/05/08 10:58:06;;;;;;;6.93;6.43;;;;;;;26.59;38.29;99502.72;4953903;28;40552;-78
2023/05/08 11:01:12;;;;;;;7.90;7.03;;;;;;;26.33;39.92;99492.28;4970238;28;42790;-77
2023/05/08 11:03:43;;;;;;;6.43;5.83;;;;;;;26.03;40.75;99477.66;4953551;28;41430;-80
2023/05/08 11:06:12;;;;;;;7.30;6.70;;;;;;;25.75;41.23;99477.31;4958390;28;40018;-78
2023/05/08 11:08:50;;;;;;;9.70;8.90;;;;;;;25.30;41.09;99480.72;4934586;28;42769;-77
2023/05/08 11:11:26;;;;;;;10.40;8.03;;;;;;;24.84;42.07;99472.34;4918352;28;42848;-78
2023/05/08 11:13:59;;;;;;;8.97;8.20;;;;;;;24.53;44.24;99436.97;4933920;28;42339;-77
2023/05/08 11:17:00;;;;;;;9.23;8.43;;;;;;;24.46;44.18;99462.22;4933473;28;40015;-77
2023/05/08 11:19:30;;;;;;;7.67;6.97;;;;;;;24.15;45.17;99467.41;4951802;28;41850;-77
2023/05/08 11:22:31;;;;;;;8.90;8.03;;;;;;;23.75;45.63;99462.75;4965523;28;42642;-76
2023/05/08 11:25:05;;;;;;;7.30;6.70;;;;;;;23.38;46.48;99457.69;4861167;29;41869;-76
2023/05/08 11:28:08;;;;;;;8.30;7.60;;;;;;;23.25;48.08;99450.88;4874650;29;40935;-77
2023/05/08 11:30:40;;;;;;;7.90;7.17;;;;;;;23.10;48.11;99447.13;4949050;28;41645;-77
2023/05/08 11:33:17;;;;;;;7.93;7.23;;;;;;;22.91;48.57;99437.38;4953192;28;41801;-75
2023/05/08 11:36:00;;;;;;;9.30;8.40;;;;;;;22.89;49.07;99441.22;4944314;28;41487;-76
2023/05/08 11:38:30;;;;;;;9.03;8.23;;;;;;;22.70;48.89;99438.72;4921935;28;39089;-78
2023/05/08 11:41:00;;;;;;;9.37;8.47;;;;;;;22.63;48.77;99443.06;4965211;28;41575;-77
2023/05/08 11:44:13;;;;;;;8.77;8.07;;;;;;;22.39;49.94;99436.47;4956856;28;44751;-77
2023/05/08 11:46:43;;;;;;;8.10;7.40;;;;;;;22.11;51.09;99437.59;4973388;28;42372;-77
2023/05/08 11:49:12;;;;;;;9.47;8.67;;;;;;;21.79;51.09;99438.94;4951078;28;40007;-75
2023/05/08 11:51:44;;;;;;;10.40;9.50;;;;;;;21.58;52.17;99434.84;4936482;28;41704;-75
2023/05/08 11:54:15;;;;;;;9.00;8.20;;;;;;;21.50;52.79;99438.28;4937601;28;42486;-77
2023/05/08 11:56:42;;;;;;;7.73;6.90;;;;;;;21.49;54.52;99429.38;4936594;28;43397;-76